createdAt,value
2018-08-31T00:00:48.740Z,70.40
2018-08-31T00:03:25.768Z,70.20
2018-08-31T00:06:05.037Z,70.30
2018-08-31T00:10:48.562Z,70.20
2018-08-31T00:13:16.498Z,71.10
2018-08-31T00:15:44.467Z,70.50
2018-08-31T00:18:12.447Z,70.70
2018-08-31T00:20:40.414Z,70.60
2018-08-31T00:23:08.458Z,70.60
2018-08-31T00:26:16.426Z,70.50
2018-08-31T00:29:12.143Z,70.60
2018-08-31T00:33:58.244Z,70.50
2018-08-31T00:38:45.049Z,70.70
2018-08-31T00:41:26.763Z,71.30
2018-08-31T00:46:11.440Z,71.60
2018-08-31T00:48:39.437Z,71.80
2018-08-31T00:51:07.407Z,71.70
2018-08-31T00:53:35.408Z,71.80
2018-08-31T00:56:03.456Z,71.60
2018-08-31T00:58:31.440Z,71.50
2018-08-31T01:00:59.387Z,71.70
2018-08-31T01:03:27.397Z,71.70
2018-08-31T01:05:55.341Z,71.50
2018-08-31T01:08:23.310Z,71.40
2018-08-31T01:10:51.274Z,71.50
2018-08-31T01:13:19.235Z,71.50
2018-08-31T01:15:47.231Z,71.50
2018-08-31T01:18:15.199Z,71.50
2018-08-31T01:20:43.192Z,71.60
2018-08-31T01:23:11.153Z,71.60
2018-08-31T01:25:39.107Z,71.40
2018-08-31T01:28:07.087Z,71.60
2018-08-31T01:30:35.047Z,71.80
2018-08-31T01:33:03.129Z,71.60
2018-08-31T01:35:31.110Z,71.60
2018-08-31T01:37:59.154Z,71.40
2018-08-31T01:40:27.100Z,71.50
2018-08-31T01:42:55.465Z,71.80
2018-08-31T01:45:23.475Z,71.80
2018-08-31T01:47:51.424Z,71.60
2018-08-31T01:50:19.410Z,71.50
2018-08-31T01:52:47.433Z,71.30
2018-08-31T01:55:15.349Z,71.60
2018-08-31T01:57:43.296Z,71.50
2018-08-31T02:00:11.250Z,71.40
2018-08-31T02:02:39.219Z,71.30
2018-08-31T02:05:07.192Z,71.30
2018-08-31T02:07:35.174Z,71.50
2018-08-31T02:10:03.160Z,71.40
2018-08-31T02:12:31.136Z,71.30
2018-08-31T02:14:59.095Z,71.10
2018-08-31T02:17:27.047Z,71.10
2018-08-31T02:19:54.991Z,71.10
2018-08-31T02:22:22.949Z,71.20
2018-08-31T02:24:50.909Z,71.20
2018-08-31T02:27:19.210Z,71.00
2018-08-31T02:29:47.170Z,71.00
2018-08-31T02:32:15.182Z,71.20
2018-08-31T02:34:43.207Z,71.20
2018-08-31T02:37:11.168Z,71.10
2018-08-31T02:39:39.128Z,71.20
2018-08-31T02:42:07.096Z,71.30
2018-08-31T02:44:35.040Z,71.20
2018-08-31T02:47:03.093Z,71.20
2018-08-31T02:49:31.083Z,71.30
2018-08-31T02:51:59.034Z,71.50
2018-08-31T02:54:27.025Z,71.80
2018-08-31T02:56:54.985Z,71.80
2018-08-31T02:59:22.971Z,71.80
2018-08-31T03:01:51.964Z,71.80
2018-08-31T03:04:19.919Z,71.90
2018-08-31T03:06:47.908Z,71.90
2018-08-31T03:09:15.861Z,71.80
2018-08-31T03:11:43.891Z,71.50
2018-08-31T03:14:11.832Z,71.60
2018-08-31T03:16:39.808Z,71.60
2018-08-31T03:19:07.843Z,71.50
2018-08-31T03:21:36.089Z,71.80
2018-08-31T03:24:04.115Z,72.50
2018-08-31T03:26:32.034Z,71.70
2018-08-31T03:29:00.299Z,72.00
2018-08-31T03:31:28.356Z,71.80
2018-08-31T03:33:56.289Z,71.80
2018-08-31T03:36:24.252Z,71.70
2018-08-31T03:38:52.199Z,71.80
2018-08-31T03:41:20.155Z,71.80
2018-08-31T03:43:48.539Z,71.90
2018-08-31T03:46:16.495Z,71.70
2018-08-31T03:48:44.508Z,71.80
2018-08-31T03:51:12.469Z,72.00
2018-08-31T03:53:40.718Z,71.80
2018-08-31T03:56:08.638Z,72.40
2018-08-31T03:58:36.602Z,72.50
2018-08-31T04:01:04.835Z,72.60
2018-08-31T04:03:32.788Z,72.50
2018-08-31T04:06:00.746Z,72.00
2018-08-31T04:08:28.879Z,71.90
2018-08-31T04:10:56.864Z,71.90
2018-08-31T04:13:24.823Z,72.10
2018-08-31T04:15:52.782Z,71.90
2018-08-31T04:18:20.776Z,72.10
2018-08-31T04:20:48.751Z,71.90
2018-08-31T04:23:16.694Z,72.00
2018-08-31T04:25:44.660Z,72.00
2018-08-31T04:28:12.615Z,72.20
2018-08-31T04:30:40.631Z,73.00
2018-08-31T04:33:08.688Z,72.50
2018-08-31T04:35:36.656Z,72.70
2018-08-31T04:38:05.005Z,73.00
2018-08-31T04:40:32.976Z,72.90
2018-08-31T04:43:00.942Z,72.80
2018-08-31T04:45:28.896Z,72.60
2018-08-31T04:47:56.866Z,72.90
2018-08-31T04:50:24.898Z,72.60
2018-08-31T04:52:52.860Z,72.30
2018-08-31T04:55:20.834Z,72.30
2018-08-31T04:57:48.796Z,72.30
2018-08-31T05:00:16.730Z,72.50
2018-08-31T05:02:45.107Z,72.40
2018-08-31T05:05:13.136Z,72.40
2018-08-31T05:07:41.245Z,72.30
2018-08-31T05:10:09.304Z,72.60
2018-08-31T05:12:37.356Z,72.60
2018-08-31T05:15:05.596Z,72.80
2018-08-31T05:17:33.566Z,72.60
2018-08-31T05:20:01.536Z,72.80
2018-08-31T05:22:30.583Z,72.60
2018-08-31T05:24:58.508Z,72.30
2018-08-31T05:27:26.480Z,72.40
2018-08-31T05:29:54.427Z,72.60
2018-08-31T05:32:22.409Z,72.60
2018-08-31T05:34:50.461Z,73.20
2018-08-31T05:37:18.383Z,72.70
2018-08-31T05:39:46.421Z,72.70
2018-08-31T05:42:14.426Z,72.60
2018-08-31T05:44:42.519Z,72.50
2018-08-31T05:47:10.454Z,72.30
2018-08-31T05:49:38.416Z,72.50
2018-08-31T05:52:06.647Z,72.30
2018-08-31T05:54:34.603Z,72.30
2018-08-31T05:57:02.580Z,73.00
2018-08-31T05:59:30.544Z,72.20
2018-08-31T06:01:58.517Z,72.40
2018-08-31T06:04:26.471Z,72.50
2018-08-31T06:06:54.416Z,73.20
2018-08-31T06:09:22.374Z,72.50
2018-08-31T06:11:50.332Z,72.60
2018-08-31T06:14:18.268Z,72.40
2018-08-31T06:16:46.290Z,72.20
2018-08-31T06:19:14.252Z,72.30
2018-08-31T06:21:42.218Z,72.10
2018-08-31T06:24:10.153Z,71.90
2018-08-31T06:26:38.138Z,72.20
2018-08-31T06:29:06.177Z,72.00
2018-08-31T06:31:34.139Z,72.10
2018-08-31T06:34:02.203Z,71.90
2018-08-31T06:36:30.055Z,72.20
2018-08-31T06:38:58.065Z,72.20
2018-08-31T06:41:26.069Z,72.40
2018-08-31T06:43:54.023Z,72.30
2018-08-31T06:46:21.991Z,72.00
2018-08-31T06:48:49.994Z,72.00
2018-08-31T06:51:18.083Z,72.40
2018-08-31T06:53:46.062Z,72.50
2018-08-31T06:56:14.021Z,72.80
2018-08-31T06:58:42.128Z,72.50
2018-08-31T07:01:10.336Z,72.60
2018-08-31T07:03:38.338Z,72.20
2018-08-31T07:06:06.281Z,72.10
2018-08-31T07:08:34.260Z,72.20
2018-08-31T07:11:02.235Z,72.30
2018-08-31T07:13:30.196Z,72.40
2018-08-31T07:15:58.167Z,72.40
2018-08-31T07:18:26.155Z,72.40
2018-08-31T07:20:54.139Z,72.20
2018-08-31T07:23:22.215Z,72.20
2018-08-31T07:25:50.191Z,72.20
2018-08-31T07:28:18.189Z,72.10
2018-08-31T07:30:46.466Z,72.00
2018-08-31T07:33:14.463Z,72.10
2018-08-31T07:35:42.445Z,72.50
2018-08-31T07:38:10.372Z,72.60
2018-08-31T07:40:38.382Z,72.80
2018-08-31T07:43:06.357Z,72.90
2018-08-31T07:45:34.346Z,73.00
2018-08-31T07:48:02.427Z,73.00
2018-08-31T07:50:30.612Z,73.10
2018-08-31T07:52:58.579Z,73.20
2018-08-31T07:55:26.670Z,73.20
2018-08-31T07:57:54.649Z,73.00
2018-08-31T08:00:22.627Z,73.00
2018-08-31T08:02:50.635Z,72.80
2018-08-31T08:05:18.623Z,72.90
2018-08-31T08:07:46.592Z,73.30
2018-08-31T08:10:14.616Z,73.00
2018-08-31T08:12:42.568Z,73.00
2018-08-31T08:15:10.547Z,72.60
2018-08-31T08:17:38.566Z,72.50
2018-08-31T08:20:06.514Z,72.00
2018-08-31T08:22:34.575Z,72.60
2018-08-31T08:25:02.553Z,72.80
2018-08-31T08:27:30.575Z,72.50
2018-08-31T08:29:58.543Z,72.40
2018-08-31T08:32:26.552Z,72.50
2018-08-31T08:34:54.522Z,72.60
2018-08-31T08:37:22.525Z,72.50
2018-08-31T08:39:50.520Z,72.00
2018-08-31T08:42:18.523Z,71.90
2018-08-31T08:44:46.493Z,71.60
2018-08-31T08:47:14.450Z,71.40
2018-08-31T08:49:42.428Z,71.50
2018-08-31T08:52:10.410Z,71.50
2018-08-31T08:54:38.420Z,71.60
2018-08-31T08:57:06.403Z,70.80
2018-08-31T08:59:34.381Z,71.50
2018-08-31T09:02:02.319Z,71.20
2018-08-31T09:04:30.390Z,71.50
2018-08-31T09:06:58.385Z,71.40
2018-08-31T09:09:26.353Z,71.30
2018-08-31T09:11:54.312Z,71.10
2018-08-31T09:14:22.249Z,71.00
2018-08-31T09:16:50.194Z,70.80
2018-08-31T09:19:18.167Z,70.80
2018-08-31T09:21:46.109Z,70.60
2018-08-31T09:24:14.079Z,70.60
2018-08-31T09:26:42.373Z,70.20
2018-08-31T09:29:10.320Z,69.90
2018-08-31T09:31:38.271Z,69.80
2018-08-31T09:34:06.371Z,70.10
2018-08-31T09:36:34.303Z,69.90
2018-08-31T09:39:02.255Z,70.40
2018-08-31T09:41:30.231Z,69.40
2018-08-31T09:43:58.239Z,69.00
2018-08-31T09:46:26.198Z,68.40
2018-08-31T09:48:57.680Z,68.60
2018-08-31T09:51:25.678Z,68.40
2018-08-31T09:53:53.646Z,68.00
2018-08-31T09:56:21.600Z,68.00
2018-08-31T09:58:49.613Z,68.10
2018-08-31T10:01:23.095Z,67.60
2018-08-31T10:03:52.946Z,67.40
2018-08-31T10:06:20.925Z,67.80
2018-08-31T10:08:48.883Z,67.30
2018-08-31T10:11:16.860Z,67.30
2018-08-31T10:13:44.832Z,67.00
2018-08-31T10:16:12.879Z,66.80
2018-08-31T10:18:40.918Z,66.80
2018-08-31T10:21:08.895Z,67.70
2018-08-31T10:23:36.877Z,67.00
2018-08-31T10:26:05.235Z,66.80
2018-08-31T10:28:33.199Z,66.90
2018-08-31T10:31:01.488Z,66.90
2018-08-31T10:33:29.428Z,67.00
2018-08-31T10:35:57.403Z,66.60
2018-08-31T10:38:25.384Z,66.20
2018-08-31T10:40:53.377Z,66.40
2018-08-31T10:43:21.328Z,66.00
2018-08-31T10:45:49.450Z,65.80
2018-08-31T10:48:17.446Z,65.30
2018-08-31T10:50:45.420Z,65.50
2018-08-31T10:53:13.561Z,65.20
2018-08-31T10:55:41.511Z,64.70
2018-08-31T10:58:09.488Z,64.90
2018-08-31T11:00:37.451Z,64.70
2018-08-31T11:03:05.425Z,64.90
2018-08-31T11:05:33.383Z,64.90
2018-08-31T11:08:01.403Z,64.80
2018-08-31T11:10:29.363Z,64.50
2018-08-31T11:12:57.397Z,64.60
2018-08-31T11:15:25.358Z,64.70
2018-08-31T11:17:53.825Z,64.80
2018-08-31T11:20:21.788Z,63.70
2018-08-31T11:22:49.958Z,63.30
2018-08-31T11:25:17.986Z,63.50
2018-08-31T11:27:46.052Z,63.50
2018-08-31T11:30:14.074Z,63.50
2018-08-31T11:32:42.088Z,63.40
2018-08-31T11:35:10.050Z,63.60
2018-08-31T11:37:38.009Z,63.50
2018-08-31T11:40:05.968Z,63.00
2018-08-31T11:42:33.976Z,62.80
2018-08-31T11:45:01.940Z,62.90
2018-08-31T11:47:29.881Z,62.90
2018-08-31T11:49:57.956Z,62.70
2018-08-31T11:52:25.916Z,63.00
2018-08-31T11:54:54.195Z,63.20
2018-08-31T11:57:22.163Z,62.70
2018-08-31T11:59:50.160Z,62.30
2018-08-31T12:02:18.228Z,62.50
2018-08-31T12:04:46.195Z,62.60
2018-08-31T12:07:14.136Z,62.20
2018-08-31T12:09:42.140Z,62.10
2018-08-31T12:12:10.111Z,62.30
2018-08-31T12:14:38.134Z,62.00
2018-08-31T12:17:06.152Z,61.70
2018-08-31T12:19:34.238Z,61.80
2018-08-31T12:22:02.320Z,62.30
2018-08-31T12:24:30.743Z,61.70
2018-08-31T12:26:58.731Z,61.50
2018-08-31T12:29:26.728Z,61.20
2018-08-31T12:31:54.698Z,61.60
2018-08-31T12:34:22.754Z,61.80
2018-08-31T12:36:50.703Z,61.70
2018-08-31T12:39:18.662Z,61.30
2018-08-31T12:41:46.944Z,61.30
2018-08-31T12:44:14.962Z,61.50
2018-08-31T12:46:42.908Z,61.30
2018-08-31T12:49:10.890Z,61.10
2018-08-31T12:51:42.527Z,61.00
2018-08-31T12:54:10.483Z,61.00
2018-08-31T12:56:38.450Z,60.70
2018-08-31T12:59:06.414Z,60.60
2018-08-31T13:01:34.416Z,60.60
2018-08-31T13:04:02.657Z,60.30
2018-08-31T13:06:30.635Z,60.50
2018-08-31T13:08:58.653Z,60.20
2018-08-31T13:11:26.638Z,60.00
2018-08-31T13:13:54.598Z,60.10
2018-08-31T13:16:22.639Z,59.60
2018-08-31T13:18:50.635Z,58.90
2018-08-31T13:21:18.597Z,59.10
2018-08-31T13:23:46.574Z,58.10
2018-08-31T13:26:14.596Z,58.40
2018-08-31T13:28:42.541Z,58.30
2018-08-31T13:31:10.620Z,57.40
2018-08-31T13:33:38.573Z,56.80
2018-08-31T13:36:06.549Z,56.40
2018-08-31T13:38:34.512Z,56.80
2018-08-31T13:41:02.498Z,57.00
2018-08-31T13:43:30.809Z,56.90
2018-08-31T13:45:58.755Z,56.80
2018-08-31T13:48:26.712Z,57.20
2018-08-31T13:50:54.748Z,57.80
2018-08-31T13:53:22.704Z,57.70
2018-08-31T13:55:50.679Z,57.60
2018-08-31T13:58:18.666Z,57.60
2018-08-31T14:00:46.655Z,57.60
2018-08-31T14:03:14.606Z,57.80
2018-08-31T14:05:42.569Z,57.30
2018-08-31T14:08:10.651Z,56.90
2018-08-31T14:10:38.621Z,57.00
2018-08-31T14:13:06.609Z,56.30
2018-08-31T14:15:34.664Z,53.90
2018-08-31T14:18:02.652Z,53.00
2018-08-31T14:20:30.648Z,53.30
2018-08-31T14:22:59.013Z,53.50
2018-08-31T14:25:26.957Z,54.20
2018-08-31T14:27:54.895Z,55.50
2018-08-31T14:30:23.237Z,55.80
2018-08-31T14:32:51.189Z,55.60
2018-08-31T14:35:19.159Z,55.70
2018-08-31T14:37:47.121Z,55.60
2018-08-31T14:40:15.088Z,55.10
2018-08-31T14:42:43.126Z,55.90
2018-08-31T14:45:11.094Z,54.90
2018-08-31T14:47:39.086Z,53.80
2018-08-31T14:50:07.278Z,53.80
2018-08-31T14:52:35.353Z,54.00
2018-08-31T14:55:03.532Z,53.80
2018-08-31T14:57:31.543Z,53.10
2018-08-31T14:59:59.499Z,53.30
2018-08-31T15:02:27.619Z,53.40
2018-08-31T15:04:55.672Z,53.60
2018-08-31T15:07:23.637Z,53.30
2018-08-31T15:09:51.593Z,53.40
2018-08-31T15:12:19.750Z,52.70
2018-08-31T15:14:47.783Z,53.10
2018-08-31T15:17:15.806Z,52.90
2018-08-31T15:19:43.745Z,52.10
2018-08-31T15:22:11.740Z,50.00
2018-08-31T15:24:39.750Z,50.50
2018-08-31T15:27:07.847Z,51.40
2018-08-31T15:29:35.904Z,51.30
2018-08-31T15:32:03.965Z,51.60
2018-08-31T15:34:31.915Z,51.00
2018-08-31T15:37:00.017Z,50.90
2018-08-31T15:39:27.860Z,51.00
2018-08-31T15:41:55.834Z,51.30
2018-08-31T15:44:23.801Z,51.10
2018-08-31T15:46:51.792Z,51.10
2018-08-31T15:49:19.894Z,51.40
2018-08-31T15:51:47.884Z,51.10
2018-08-31T15:54:15.903Z,50.90
2018-08-31T15:56:43.863Z,50.90
2018-08-31T15:59:11.865Z,50.90
2018-08-31T16:01:39.902Z,50.70
2018-08-31T16:04:07.845Z,51.30
2018-08-31T16:06:35.847Z,51.00
2018-08-31T16:09:04.825Z,50.90
2018-08-31T16:11:32.803Z,50.30
2018-08-31T16:14:00.730Z,50.40
2018-08-31T16:16:28.740Z,50.40
2018-08-31T16:18:56.817Z,50.70
2018-08-31T16:21:24.743Z,50.70
2018-08-31T16:23:52.737Z,51.10
2018-08-31T16:26:20.708Z,51.10
2018-08-31T16:28:48.703Z,51.20
2018-08-31T16:31:16.884Z,51.10
2018-08-31T16:33:44.831Z,51.40
2018-08-31T16:36:12.801Z,51.60
2018-08-31T16:38:40.807Z,51.90
2018-08-31T16:41:08.754Z,51.50
2018-08-31T16:43:36.702Z,51.30
2018-08-31T16:46:04.699Z,51.10
2018-08-31T16:48:32.757Z,51.00
2018-08-31T16:51:00.697Z,51.00
2018-08-31T16:53:28.690Z,50.60
2018-08-31T16:55:56.912Z,49.80
2018-08-31T16:58:24.952Z,50.10
2018-08-31T17:00:53.040Z,49.80
2018-08-31T17:03:21.079Z,49.50
2018-08-31T17:05:49.009Z,49.60
2018-08-31T17:08:17.108Z,48.30
2018-08-31T17:10:45.056Z,48.10
2018-08-31T17:13:13.060Z,48.00
2018-08-31T17:15:41.055Z,48.00
2018-08-31T17:18:09.106Z,47.80
2018-08-31T17:20:37.073Z,47.50
2018-08-31T17:23:05.058Z,47.40
2018-08-31T17:25:33.052Z,47.50
2018-08-31T17:28:06.588Z,47.50
2018-08-31T17:30:34.596Z,47.10
2018-08-31T17:34:08.574Z,47.50
2018-08-31T17:36:42.077Z,47.60
2018-08-31T17:39:11.531Z,47.20
2018-08-31T17:41:39.578Z,47.50
2018-08-31T17:44:07.917Z,47.50
2018-08-31T17:46:35.932Z,47.00
2018-08-31T17:49:03.951Z,47.10
2018-08-31T17:51:32.052Z,47.50
2018-08-31T17:54:00.034Z,47.30
2018-08-31T17:56:28.119Z,47.50
2018-08-31T17:58:55.982Z,47.60
2018-08-31T18:01:23.945Z,47.90
2018-08-31T18:03:51.900Z,47.90
2018-08-31T18:06:19.866Z,48.00
2018-08-31T18:08:47.918Z,48.00
2018-08-31T18:11:15.933Z,48.00
2018-08-31T18:13:44.268Z,48.00
2018-08-31T18:16:12.262Z,48.10
2018-08-31T18:18:40.344Z,48.30
2018-08-31T18:21:08.580Z,48.40
2018-08-31T18:23:36.541Z,48.50
2018-08-31T18:26:04.802Z,48.70
2018-08-31T18:28:32.818Z,48.60
2018-08-31T18:31:00.758Z,48.50
2018-08-31T18:33:28.913Z,48.80
2018-08-31T18:35:56.871Z,48.80
2018-08-31T18:38:24.803Z,49.00
2018-08-31T18:40:52.773Z,49.10
2018-08-31T18:43:20.711Z,49.30
2018-08-31T18:45:48.651Z,49.40
2018-08-31T18:48:16.737Z,49.40
2018-08-31T18:50:44.796Z,49.60
2018-08-31T18:53:12.837Z,49.80
2018-08-31T18:55:40.780Z,49.90
2018-08-31T18:58:08.789Z,50.00
2018-08-31T19:00:36.771Z,50.10
2018-08-31T19:03:04.938Z,50.20
2018-08-31T19:05:32.915Z,50.20
2018-08-31T19:08:01.045Z,50.20
2018-08-31T19:10:29.017Z,50.50
2018-08-31T19:12:57.046Z,50.60
2018-08-31T19:15:25.013Z,50.70
2018-08-31T19:17:53.021Z,51.00
2018-08-31T19:20:20.973Z,51.00
2018-08-31T19:22:48.993Z,51.00
2018-08-31T19:25:17.049Z,51.20
2018-08-31T19:27:45.088Z,51.30
2018-08-31T19:30:13.004Z,51.30
2018-08-31T19:32:40.938Z,51.50
2018-08-31T19:35:08.954Z,51.60
2018-08-31T19:37:37.126Z,51.70
2018-08-31T19:40:05.335Z,51.70
2018-08-31T19:42:33.332Z,51.80
2018-08-31T19:45:01.500Z,51.90
2018-08-31T19:47:29.680Z,52.10
2018-08-31T19:49:57.715Z,52.20
2018-08-31T19:52:26.142Z,52.30
2018-08-31T19:54:54.204Z,52.30
2018-08-31T19:57:22.134Z,52.30
2018-08-31T19:59:50.270Z,53.00
2018-08-31T20:02:18.716Z,52.50
2018-08-31T20:04:46.900Z,52.70
2018-08-31T20:07:15.633Z,52.70
2018-08-31T20:09:43.674Z,52.80
2018-08-31T20:12:12.651Z,52.80
2018-08-31T20:14:40.646Z,52.80
2018-08-31T20:17:08.563Z,52.90
2018-08-31T20:19:36.613Z,52.90
2018-08-31T20:22:07.484Z,53.10
2018-08-31T20:24:35.439Z,53.20
2018-08-31T20:27:03.426Z,53.30
2018-08-31T20:29:31.464Z,53.50
2018-08-31T20:31:59.439Z,53.70
2018-08-31T20:34:27.543Z,53.80
2018-08-31T20:36:55.509Z,54.00
2018-08-31T20:39:23.577Z,54.10
2018-08-31T20:41:51.662Z,54.20
2018-08-31T20:44:19.615Z,54.20
2018-08-31T20:46:47.588Z,54.20
2018-08-31T20:49:15.620Z,54.20
2018-08-31T20:51:43.617Z,54.40
2018-08-31T20:54:11.674Z,54.60
2018-08-31T20:56:39.557Z,55.60
2018-08-31T20:59:07.582Z,54.90
2018-08-31T21:01:35.591Z,54.90
2018-08-31T21:04:03.627Z,55.10
2018-08-31T21:06:31.647Z,55.40
2018-08-31T21:08:59.697Z,55.50
2018-08-31T21:11:27.653Z,55.70
2018-08-31T21:13:55.740Z,56.00
2018-08-31T21:16:23.698Z,56.20
2018-08-31T21:18:51.660Z,56.30
2018-08-31T21:21:19.671Z,56.40
2018-08-31T21:23:47.623Z,56.40
2018-08-31T21:26:15.604Z,56.40
2018-08-31T21:28:43.704Z,56.60
2018-08-31T21:31:11.857Z,56.70
2018-08-31T21:33:39.837Z,57.00
2018-08-31T21:36:07.865Z,57.10
2018-08-31T21:38:35.820Z,57.20
2018-08-31T21:41:03.951Z,57.70
2018-08-31T21:43:31.889Z,58.00
2018-08-31T21:45:59.868Z,58.20
2018-08-31T21:48:27.842Z,58.20
2018-08-31T21:50:55.801Z,58.20
2018-08-31T21:53:23.849Z,58.60
2018-08-31T21:55:51.795Z,58.70
2018-08-31T21:58:19.784Z,58.90
2018-08-31T22:00:47.732Z,59.30
2018-08-31T22:03:15.739Z,59.30
2018-08-31T22:05:47.352Z,59.40
2018-08-31T22:08:16.079Z,59.30
2018-08-31T22:10:44.047Z,60.00
2018-08-31T22:13:12.030Z,59.30
2018-08-31T22:15:39.991Z,59.40
2018-08-31T22:18:08.416Z,59.40
2018-08-31T22:20:36.448Z,59.30
2018-08-31T22:23:04.396Z,59.30
2018-08-31T22:25:32.382Z,59.30
2018-08-31T22:28:00.609Z,59.20
2018-08-31T22:30:28.552Z,59.00
2018-08-31T22:32:56.575Z,59.00
2018-08-31T22:35:24.820Z,59.00
2018-08-31T22:37:52.770Z,58.90
2018-08-31T22:40:20.721Z,58.80
2018-08-31T22:42:48.675Z,58.50
2018-08-31T22:45:16.633Z,58.40
2018-08-31T22:47:45.079Z,58.50
2018-08-31T22:50:13.842Z,58.70
2018-08-31T22:52:41.806Z,58.80
2018-08-31T22:55:09.847Z,58.90
2018-08-31T22:57:37.941Z,59.10
2018-08-31T23:00:06.057Z,59.60
2018-08-31T23:02:34.033Z,59.80
2018-08-31T23:05:02.250Z,60.00
2018-08-31T23:07:35.684Z,60.00
2018-08-31T23:10:03.675Z,60.10
2018-08-31T23:12:31.835Z,60.30
2018-08-31T23:14:59.798Z,60.60
2018-08-31T23:17:28.293Z,62.10
2018-08-31T23:19:57.211Z,61.60
2018-08-31T23:22:25.668Z,61.60
2018-08-31T23:24:53.614Z,61.70
2018-08-31T23:27:21.586Z,61.60
2018-08-31T23:29:49.638Z,61.80
2018-08-31T23:32:17.570Z,61.80
2018-08-31T23:34:45.556Z,62.00
2018-08-31T23:37:13.909Z,62.00
2018-08-31T23:39:41.832Z,61.80
2018-08-31T23:42:09.772Z,61.50
2018-08-31T23:44:37.714Z,61.30
2018-08-31T23:47:05.674Z,61.20
2018-08-31T23:49:33.626Z,61.10
2018-08-31T23:52:01.577Z,60.90
2018-08-31T23:54:29.544Z,60.90
2018-08-31T23:56:57.639Z,61.00
2018-08-31T23:59:25.684Z,61.20
